Sand Key, FL current weather conditions

sailwx.info

Wind from 060 at 18 knots gusting 19

Air temperature 28.6° C
Dewpoint 24.4° C

Last reported at 2016-Aug-25 03:50 UTC.
Time now 2016-Aug-25 06:15 UTC

Location: N 24°28' W 081°53'.
View on Google Maps.

See reports from other nearby stations

  
Tides and Currents Weather Stations Pressure Air Temp Water Temp Dewpoint Dewpoint Depression Visibility Wind Speed Wind Dir Waves Ship Positions
date/time (UTC)wind fromknots sea level pressurealtimeterstation pressurevisibilityair tempwater tempwave heightnotes
2016-Aug-25 03:50 060 18 gusting 19 28.6
2016-Aug-25 02:50 060 16 gusting 19 28.9
2016-Aug-25 01:50 060 16 gusting 19 29.1
2016-Aug-25 00:50 070 15 gusting 17 29.6
2016-Aug-24 22:50 050 15 gusting 18 30.2
2016-Aug-24 21:50 060 11 gusting 14 30.1
2016-Aug-24 20:50 070 9 gusting 11 29.8
2016-Aug-24 19:50 060 7 gusting 9 29.3
2016-Aug-24 18:50 070 6 gusting 7 26.4
2016-Aug-24 17:50 050 15 gusting 20 27.2
2016-Aug-24 16:50 080 8 gusting 9 29.8
2016-Aug-24 15:50 080 9 gusting 12 29.5
2016-Aug-24 14:50 29.5
2016-Aug-24 13:50 080 13 gusting 14 28.5
2016-Aug-24 12:50 050 13 gusting 14 28.7
2016-Aug-24 11:50 060 12 gusting 13 28.1
2016-Aug-24 10:50 030 7 gusting 11 27.5
2016-Aug-24 09:50 130 16 gusting 18 27.5
2016-Aug-24 08:50 100 17 gusting 23 25.8
2016-Aug-24 07:50 130 15 gusting 18 27.8
2016-Aug-24 06:50 070 12 gusting 14 29.6
2016-Aug-24 05:50 080 11 gusting 12 29.3
2016-Aug-24 04:50 110 13 gusting 14 30.0
2016-Aug-24 03:50 100 12 gusting 14 29.7
2016-Aug-24 02:50 110 13 gusting 15 29.8
2016-Aug-24 01:50 110 10 gusting 12 29.6
2016-Aug-24 00:50 090 8 gusting 10 29.7
2016-Aug-23 22:50 070 7 gusting 8 29.4
2016-Aug-23 21:50 050 8 gusting 9 28.8
2016-Aug-23 20:50 030 15 gusting 22 26.7
2016-Aug-23 19:50 360 7 gusting 8 28.1
2016-Aug-23 18:50 050 5 gusting 7 29.4
2016-Aug-23 17:50 100 7 gusting 8 29.6
2016-Aug-23 16:50 150 5 gusting 5 29.6
2016-Aug-23 15:50 120 10 gusting 12 29.8
2016-Aug-23 14:50 110 9 gusting 11 29.7
2016-Aug-23 13:50 090 7 gusting 12 29.5
2016-Aug-23 12:50 110 8 gusting 10 29.5
2016-Aug-23 11:50 110 9 gusting 11 29.3
2016-Aug-23 10:50 110 9 gusting 10 29.3
2016-Aug-23 09:50 110 8 gusting 9 29.2
2016-Aug-23 08:50 100 6 gusting 7 29.4
2016-Aug-23 07:50 120 7 gusting 8 29.1
2016-Aug-23 06:50 110 8 gusting 10 28.7